sensor_id;sensor_type;location;lat;lon;timestamp;temperature;humidity
72114;SHT31;59989;46.220;19.888;2023-08-08T00:00:48;13.54;82.58
72114;SHT31;59989;46.220;19.888;2023-08-08T00:03:50;13.55;82.48
72114;SHT31;59989;46.220;19.888;2023-08-08T00:06:53;13.54;82.58
72114;SHT31;59989;46.220;19.888;2023-08-08T00:09:56;13.51;82.63
72114;SHT31;59989;46.220;19.888;2023-08-08T00:12:59;13.48;82.81
72114;SHT31;59989;46.220;19.888;2023-08-08T00:16:01;13.50;82.88
72114;SHT31;59989;46.220;19.888;2023-08-08T00:19:04;13.54;82.39
72114;SHT31;59989;46.220;19.888;2023-08-08T00:22:07;13.50;82.71
72114;SHT31;59989;46.220;19.888;2023-08-08T00:25:10;13.50;82.92
72114;SHT31;59989;46.220;19.888;2023-08-08T00:28:12;13.46;83.10
72114;SHT31;59989;46.220;19.888;2023-08-08T00:31:15;13.41;83.01
72114;SHT31;59989;46.220;19.888;2023-08-08T00:34:20;13.41;83.20
72114;SHT31;59989;46.220;19.888;2023-08-08T00:37:23;13.39;83.18
72114;SHT31;59989;46.220;19.888;2023-08-08T00:40:26;13.36;83.32
72114;SHT31;59989;46.220;19.888;2023-08-08T00:43:28;13.36;83.44
72114;SHT31;59989;46.220;19.888;2023-08-08T00:46:31;13.33;83.46
72114;SHT31;59989;46.220;19.888;2023-08-08T00:49:34;13.34;83.65
72114;SHT31;59989;46.220;19.888;2023-08-08T00:52:38;13.33;83.36
72114;SHT31;59989;46.220;19.888;2023-08-08T00:55:41;13.26;83.59
72114;SHT31;59989;46.220;19.888;2023-08-08T00:58:44;13.21;84.01
72114;SHT31;59989;46.220;19.888;2023-08-08T01:01:52;13.21;83.86
72114;SHT31;59989;46.220;19.888;2023-08-08T01:04:55;13.16;84.07
72114;SHT31;59989;46.220;19.888;2023-08-08T01:08:04;13.04;84.27
72114;SHT31;59989;46.220;19.888;2023-08-08T01:11:08;13.00;84.29
72114;SHT31;59989;46.220;19.888;2023-08-08T01:14:11;12.96;84.31
72114;SHT31;59989;46.220;19.888;2023-08-08T01:17:16;13.00;84.37
72114;SHT31;59989;46.220;19.888;2023-08-08T01:20:19;13.03;83.72
72114;SHT31;59989;46.220;19.888;2023-08-08T01:23:42;13.09;83.67
72114;SHT31;59989;46.220;19.888;2023-08-08T01:26:46;13.09;83.57
72114;SHT31;59989;46.220;19.888;2023-08-08T01:29:49;13.06;83.77
72114;SHT31;59989;46.220;19.888;2023-08-08T01:32:51;13.10;83.79
72114;SHT31;59989;46.220;19.888;2023-08-08T01:36:09;13.09;83.78
72114;SHT31;59989;46.220;19.888;2023-08-08T01:39:20;13.06;83.77
72114;SHT31;59989;46.220;19.888;2023-08-08T01:42:25;13.06;83.53
72114;SHT31;59989;46.220;19.888;2023-08-08T01:45:28;13.04;83.55
72114;SHT31;59989;46.220;19.888;2023-08-08T01:48:30;13.09;83.17
72114;SHT31;59989;46.220;19.888;2023-08-08T01:51:33;13.06;83.07
72114;SHT31;59989;46.220;19.888;2023-08-08T01:54:36;13.02;83.43
72114;SHT31;59989;46.220;19.888;2023-08-08T01:57:38;13.07;83.09
72114;SHT31;59989;46.220;19.888;2023-08-08T02:00:41;13.06;83.16
72114;SHT31;59989;46.220;19.888;2023-08-08T02:03:46;13.04;82.93
72114;SHT31;59989;46.220;19.888;2023-08-08T02:06:48;13.13;82.78
72114;SHT31;59989;46.220;19.888;2023-08-08T02:09:51;13.19;82.79
72114;SHT31;59989;46.220;19.888;2023-08-08T02:12:53;13.20;82.73
72114;SHT31;59989;46.220;19.888;2023-08-08T02:15:56;13.20;82.60
72114;SHT31;59989;46.220;19.888;2023-08-08T02:18:58;13.23;82.67
72114;SHT31;59989;46.220;19.888;2023-08-08T02:22:01;13.24;82.49
72114;SHT31;59989;46.220;19.888;2023-08-08T02:25:04;13.24;82.84
72114;SHT31;59989;46.220;19.888;2023-08-08T02:28:07;13.27;82.69
72114;SHT31;59989;46.220;19.888;2023-08-08T02:31:10;13.27;82.74
72114;SHT31;59989;46.220;19.888;2023-08-08T02:34:13;13.17;83.25
72114;SHT31;59989;46.220;19.888;2023-08-08T02:37:15;13.10;83.66
72114;SHT31;59989;46.220;19.888;2023-08-08T02:40:18;12.97;84.03
72114;SHT31;59989;46.220;19.888;2023-08-08T02:43:21;12.92;84.16
72114;SHT31;59989;46.220;19.888;2023-08-08T02:46:24;12.86;84.55
72114;SHT31;59989;46.220;19.888;2023-08-08T02:49:27;12.76;85.21
72114;SHT31;59989;46.220;19.888;2023-08-08T02:52:31;12.75;85.46
72114;SHT31;59989;46.220;19.888;2023-08-08T02:55:36;12.69;85.38
72114;SHT31;59989;46.220;19.888;2023-08-08T02:58:38;12.65;85.45
72114;SHT31;59989;46.220;19.888;2023-08-08T03:01:42;12.64;85.56
72114;SHT31;59989;46.220;19.888;2023-08-08T03:04:51;12.62;85.42
72114;SHT31;59989;46.220;19.888;2023-08-08T03:07:54;12.62;85.37
72114;SHT31;59989;46.220;19.888;2023-08-08T03:10:59;12.62;85.13
72114;SHT31;59989;46.220;19.888;2023-08-08T03:14:03;12.62;85.22
72114;SHT31;59989;46.220;19.888;2023-08-08T03:17:06;12.62;85.33
72114;SHT31;59989;46.220;19.888;2023-08-08T03:20:09;12.64;85.04
72114;SHT31;59989;46.220;19.888;2023-08-08T03:23:13;12.65;84.99
72114;SHT31;59989;46.220;19.888;2023-08-08T03:26:16;12.69;84.57
72114;SHT31;59989;46.220;19.888;2023-08-08T03:29:20;12.68;84.75
72114;SHT31;59989;46.220;19.888;2023-08-08T03:32:24;12.65;85.13
72114;SHT31;59989;46.220;19.888;2023-08-08T03:35:27;12.66;84.91
72114;SHT31;59989;46.220;19.888;2023-08-08T03:38:29;12.68;84.62
72114;SHT31;59989;46.220;19.888;2023-08-08T03:41:32;12.71;84.62
72114;SHT31;59989;46.220;19.888;2023-08-08T03:44:34;12.71;84.50
72114;SHT31;59989;46.220;19.888;2023-08-08T03:47:37;12.73;84.69
72114;SHT31;59989;46.220;19.888;2023-08-08T03:50:39;12.73;84.66
72114;SHT31;59989;46.220;19.888;2023-08-08T03:53:42;12.69;84.97
72114;SHT31;59989;46.220;19.888;2023-08-08T03:56:45;12.73;84.79
72114;SHT31;59989;46.220;19.888;2023-08-08T03:59:47;12.79;84.86
72114;SHT31;59989;46.220;19.888;2023-08-08T04:02:50;12.78;84.62
72114;SHT31;59989;46.220;19.888;2023-08-08T04:05:53;12.83;84.53
72114;SHT31;59989;46.220;19.888;2023-08-08T04:08:55;12.86;84.51
72114;SHT31;59989;46.220;19.888;2023-08-08T04:11:58;12.92;84.26
72114;SHT31;59989;46.220;19.888;2023-08-08T04:15:01;12.96;84.30
72114;SHT31;59989;46.220;19.888;2023-08-08T04:18:04;13.02;83.93
72114;SHT31;59989;46.220;19.888;2023-08-08T04:21:08;13.13;83.67
72114;SHT31;59989;46.220;19.888;2023-08-08T04:24:11;13.21;83.47
72114;SHT31;59989;46.220;19.888;2023-08-08T04:27:14;13.31;82.98
72114;SHT31;59989;46.220;19.888;2023-08-08T04:30:17;13.41;82.91
72114;SHT31;59989;46.220;19.888;2023-08-08T04:33:19;13.51;82.18
72114;SHT31;59989;46.220;19.888;2023-08-08T04:36:22;13.58;82.42
72114;SHT31;59989;46.220;19.888;2023-08-08T04:39:24;13.64;81.66
72114;SHT31;59989;46.220;19.888;2023-08-08T04:42:26;13.81;81.06
72114;SHT31;59989;46.220;19.888;2023-08-08T04:45:29;13.97;80.45
72114;SHT31;59989;46.220;19.888;2023-08-08T04:48:31;14.10;79.78
72114;SHT31;59989;46.220;19.888;2023-08-08T04:51:35;14.19;79.66
72114;SHT31;59989;46.220;19.888;2023-08-08T04:54:37;14.33;78.44
72114;SHT31;59989;46.220;19.888;2023-08-08T04:57:40;14.44;78.47
72114;SHT31;59989;46.220;19.888;2023-08-08T05:00:42;14.57;78.23
72114;SHT31;59989;46.220;19.888;2023-08-08T05:03:45;14.66;77.50
72114;SHT31;59989;46.220;19.888;2023-08-08T05:06:48;14.77;76.72
72114;SHT31;59989;46.220;19.888;2023-08-08T05:09:51;14.84;76.57
72114;SHT31;59989;46.220;19.888;2023-08-08T05:12:54;14.95;76.02
72114;SHT31;59989;46.220;19.888;2023-08-08T05:15:56;15.04;76.46
72114;SHT31;59989;46.220;19.888;2023-08-08T05:18:59;15.09;75.66
72114;SHT31;59989;46.220;19.888;2023-08-08T05:22:01;15.14;75.64
72114;SHT31;59989;46.220;19.888;2023-08-08T05:25:05;15.25;76.26
72114;SHT31;59989;46.220;19.888;2023-08-08T05:28:08;15.31;74.93
72114;SHT31;59989;46.220;19.888;2023-08-08T05:31:12;15.39;74.47
72114;SHT31;59989;46.220;19.888;2023-08-08T05:34:15;15.39;74.55
72114;SHT31;59989;46.220;19.888;2023-08-08T05:37:17;15.52;74.59
72114;SHT31;59989;46.220;19.888;2023-08-08T05:40:20;15.56;74.16
72114;SHT31;59989;46.220;19.888;2023-08-08T05:43:22;15.70;73.91
72114;SHT31;59989;46.220;19.888;2023-08-08T05:46:25;15.79;73.85
72114;SHT31;59989;46.220;19.888;2023-08-08T05:49:27;15.84;73.17
72114;SHT31;59989;46.220;19.888;2023-08-08T05:52:31;15.91;72.69
72114;SHT31;59989;46.220;19.888;2023-08-08T05:55:33;16.03;73.10
72114;SHT31;59989;46.220;19.888;2023-08-08T05:58:36;16.07;71.75
72114;SHT31;59989;46.220;19.888;2023-08-08T06:01:41;16.14;71.52
72114;SHT31;59989;46.220;19.888;2023-08-08T06:04:44;16.17;71.06
72114;SHT31;59989;46.220;19.888;2023-08-08T06:07:47;16.26;71.83
72114;SHT31;59989;46.220;19.888;2023-08-08T06:10:50;16.35;70.86
72114;SHT31;59989;46.220;19.888;2023-08-08T06:13:52;16.58;70.82
72114;SHT31;59989;46.220;19.888;2023-08-08T06:16:56;16.61;69.94
72114;SHT31;59989;46.220;19.888;2023-08-08T06:19:59;16.77;69.91
72114;SHT31;59989;46.220;19.888;2023-08-08T06:23:02;16.83;69.93
72114;SHT31;59989;46.220;19.888;2023-08-08T06:26:06;16.91;69.90
72114;SHT31;59989;46.220;19.888;2023-08-08T06:29:08;16.91;68.68
72114;SHT31;59989;46.220;19.888;2023-08-08T06:32:11;17.04;68.39
72114;SHT31;59989;46.220;19.888;2023-08-08T06:35:14;17.11;68.32
72114;SHT31;59989;46.220;19.888;2023-08-08T06:38:19;17.28;67.37
72114;SHT31;59989;46.220;19.888;2023-08-08T06:41:21;17.30;66.99
72114;SHT31;59989;46.220;19.888;2023-08-08T06:44:24;17.47;67.62
72114;SHT31;59989;46.220;19.888;2023-08-08T06:47:26;17.74;66.54
72114;SHT31;59989;46.220;19.888;2023-08-08T06:50:29;17.76;65.96
72114;SHT31;59989;46.220;19.888;2023-08-08T06:53:32;17.85;65.13
72114;SHT31;59989;46.220;19.888;2023-08-08T06:56:34;17.86;64.92
72114;SHT31;59989;46.220;19.888;2023-08-08T06:59:37;18.03;65.04
72114;SHT31;59989;46.220;19.888;2023-08-08T07:02:39;18.22;65.13
72114;SHT31;59989;46.220;19.888;2023-08-08T07:05:42;18.37;65.14
72114;SHT31;59989;46.220;19.888;2023-08-08T07:08:45;18.48;63.16
72114;SHT31;59989;46.220;19.888;2023-08-08T07:11:47;18.89;63.43
72114;SHT31;59989;46.220;19.888;2023-08-08T07:14:50;18.76;62.31
72114;SHT31;59989;46.220;19.888;2023-08-08T07:17:53;18.89;62.02
72114;SHT31;59989;46.220;19.888;2023-08-08T07:20:55;18.87;61.85
72114;SHT31;59989;46.220;19.888;2023-08-08T07:23:58;19.43;61.79
72114;SHT31;59989;46.220;19.888;2023-08-08T07:27:01;19.50;60.02
72114;SHT31;59989;46.220;19.888;2023-08-08T07:30:04;19.74;60.94
72114;SHT31;59989;46.220;19.888;2023-08-08T07:33:09;19.67;60.52
72114;SHT31;59989;46.220;19.888;2023-08-08T07:36:12;20.18;60.83
72114;SHT31;59989;46.220;19.888;2023-08-08T07:39:14;20.38;59.05
72114;SHT31;59989;46.220;19.888;2023-08-08T07:42:17;20.39;58.12
72114;SHT31;59989;46.220;19.888;2023-08-08T07:45:19;20.24;59.59
72114;SHT31;59989;46.220;19.888;2023-08-08T07:48:23;20.30;57.86
72114;SHT31;59989;46.220;19.888;2023-08-08T07:51:25;20.49;59.23
72114;SHT31;59989;46.220;19.888;2023-08-08T07:54:28;20.77;58.32
72114;SHT31;59989;46.220;19.888;2023-08-08T07:57:32;21.17;57.89
72114;SHT31;59989;46.220;19.888;2023-08-08T08:00:37;21.08;57.57
72114;SHT31;59989;46.220;19.888;2023-08-08T08:03:40;21.10;56.84
72114;SHT31;59989;46.220;19.888;2023-08-08T08:06:44;20.79;55.95
72114;SHT31;59989;46.220;19.888;2023-08-08T08:09:46;20.83;55.49
72114;SHT31;59989;46.220;19.888;2023-08-08T08:12:49;20.81;56.10
72114;SHT31;59989;46.220;19.888;2023-08-08T08:15:51;21.30;56.42
72114;SHT31;59989;46.220;19.888;2023-08-08T08:18:54;21.52;55.67
72114;SHT31;59989;46.220;19.888;2023-08-08T08:21:56;21.62;53.51
72114;SHT31;59989;46.220;19.888;2023-08-08T08:25:00;21.69;54.20
72114;SHT31;59989;46.220;19.888;2023-08-08T08:28:02;21.66;52.81
72114;SHT31;59989;46.220;19.888;2023-08-08T08:31:06;22.06;52.10
72114;SHT31;59989;46.220;19.888;2023-08-08T08:34:09;22.20;53.36
72114;SHT31;59989;46.220;19.888;2023-08-08T08:37:11;22.25;52.05
72114;SHT31;59989;46.220;19.888;2023-08-08T08:40:14;21.76;52.96
72114;SHT31;59989;46.220;19.888;2023-08-08T08:43:17;21.90;54.34
72114;SHT31;59989;46.220;19.888;2023-08-08T08:46:21;22.14;54.17
72114;SHT31;59989;46.220;19.888;2023-08-08T08:49:25;22.44;53.80
72114;SHT31;59989;46.220;19.888;2023-08-08T08:52:28;22.10;51.36
72114;SHT31;59989;46.220;19.888;2023-08-08T08:55:31;21.89;50.22
72114;SHT31;59989;46.220;19.888;2023-08-08T08:58:34;22.30;51.76
72114;SHT31;59989;46.220;19.888;2023-08-08T09:01:37;22.61;51.54
72114;SHT31;59989;46.220;19.888;2023-08-08T09:04:45;22.39;51.16
72114;SHT31;59989;46.220;19.888;2023-08-08T09:07:49;22.02;50.00
72114;SHT31;59989;46.220;19.888;2023-08-08T09:10:53;22.75;50.25
72114;SHT31;59989;46.220;19.888;2023-08-08T09:13:56;22.67;51.25
72114;SHT31;59989;46.220;19.888;2023-08-08T09:16:59;22.72;49.21
72114;SHT31;59989;46.220;19.888;2023-08-08T09:20:02;22.89;49.12
72114;SHT31;59989;46.220;19.888;2023-08-08T09:23:06;23.37;47.95
72114;SHT31;59989;46.220;19.888;2023-08-08T09:26:08;23.36;47.43
72114;SHT31;59989;46.220;19.888;2023-08-08T09:29:13;23.29;47.89
72114;SHT31;59989;46.220;19.888;2023-08-08T09:32:17;23.13;47.70
72114;SHT31;59989;46.220;19.888;2023-08-08T09:35:23;23.50;47.21
72114;SHT31;59989;46.220;19.888;2023-08-08T09:38:25;23.20;46.06
72114;SHT31;59989;46.220;19.888;2023-08-08T09:41:28;23.36;46.73
72114;SHT31;59989;46.220;19.888;2023-08-08T09:44:30;23.61;48.68
72114;SHT31;59989;46.220;19.888;2023-08-08T09:47:33;24.22;48.05
72114;SHT31;59989;46.220;19.888;2023-08-08T09:50:36;23.91;45.78
72114;SHT31;59989;46.220;19.888;2023-08-08T09:53:40;24.42;47.01
72114;SHT31;59989;46.220;19.888;2023-08-08T09:56:43;24.37;46.65
72114;SHT31;59989;46.220;19.888;2023-08-08T09:59:47;24.33;44.96
72114;SHT31;59989;46.220;19.888;2023-08-08T10:02:49;24.55;45.98
72114;SHT31;59989;46.220;19.888;2023-08-08T10:05:53;24.37;43.26
72114;SHT31;59989;46.220;19.888;2023-08-08T10:08:55;24.37;44.56
72114;SHT31;59989;46.220;19.888;2023-08-08T10:11:58;24.72;44.39
72114;SHT31;59989;46.220;19.888;2023-08-08T10:15:02;24.53;44.58
72114;SHT31;59989;46.220;19.888;2023-08-08T10:18:06;24.79;45.33
72114;SHT31;59989;46.220;19.888;2023-08-08T10:21:12;25.22;45.79
72114;SHT31;59989;46.220;19.888;2023-08-08T10:24:22;24.91;45.25
72114;SHT31;59989;46.220;19.888;2023-08-08T10:27:32;25.03;41.63
72114;SHT31;59989;46.220;19.888;2023-08-08T10:30:45;25.07;43.50
72114;SHT31;59989;46.220;19.888;2023-08-08T10:33:49;26.01;41.80
72114;SHT31;59989;46.220;19.888;2023-08-08T10:36:51;26.27;42.26
72114;SHT31;59989;46.220;19.888;2023-08-08T10:39:58;25.99;41.35
72114;SHT31;59989;46.220;19.888;2023-08-08T10:43:10;26.36;41.18
72114;SHT31;59989;46.220;19.888;2023-08-08T10:46:13;26.23;40.13
72114;SHT31;59989;46.220;19.888;2023-08-08T10:49:16;26.04;40.63
72114;SHT31;59989;46.220;19.888;2023-08-08T10:52:19;26.49;40.83
72114;SHT31;59989;46.220;19.888;2023-08-08T10:55:24;26.37;39.41
72114;SHT31;59989;46.220;19.888;2023-08-08T10:58:38;26.95;39.61
72114;SHT31;59989;46.220;19.888;2023-08-08T11:01:41;26.65;39.33
72114;SHT31;59989;46.220;19.888;2023-08-08T11:04:44;26.24;39.48
72114;SHT31;59989;46.220;19.888;2023-08-08T11:07:47;27.20;39.65
72114;SHT31;59989;46.220;19.888;2023-08-08T11:10:52;26.44;37.85
72114;SHT31;59989;46.220;19.888;2023-08-08T11:13:55;26.72;39.15
72114;SHT31;59989;46.220;19.888;2023-08-08T11:16:57;27.29;38.33
72114;SHT31;59989;46.220;19.888;2023-08-08T11:20:01;27.72;37.96
72114;SHT31;59989;46.220;19.888;2023-08-08T11:23:04;28.15;36.81
72114;SHT31;59989;46.220;19.888;2023-08-08T11:26:08;29.72;35.53
72114;SHT31;59989;46.220;19.888;2023-08-08T11:29:14;28.09;34.34
72114;SHT31;59989;46.220;19.888;2023-08-08T11:32:17;27.24;36.09
72114;SHT31;59989;46.220;19.888;2023-08-08T11:35:24;27.30;37.65
72114;SHT31;59989;46.220;19.888;2023-08-08T11:38:28;26.08;39.76
72114;SHT31;59989;46.220;19.888;2023-08-08T11:41:32;27.43;38.98
72114;SHT31;59989;46.220;19.888;2023-08-08T11:44:35;28.73;35.51
72114;SHT31;59989;46.220;19.888;2023-08-08T11:47:41;27.13;38.83
72114;SHT31;59989;46.220;19.888;2023-08-08T11:50:43;27.19;38.04
72114;SHT31;59989;46.220;19.888;2023-08-08T11:53:53;27.95;36.97
72114;SHT31;59989;46.220;19.888;2023-08-08T11:56:56;28.88;35.13
72114;SHT31;59989;46.220;19.888;2023-08-08T11:59:58;28.70;37.16
72114;SHT31;59989;46.220;19.888;2023-08-08T12:03:01;26.85;39.44
72114;SHT31;59989;46.220;19.888;2023-08-08T12:06:16;27.43;40.03
72114;SHT31;59989;46.220;19.888;2023-08-08T12:09:20;26.16;39.80
72114;SHT31;59989;46.220;19.888;2023-08-08T12:12:22;27.06;37.86
72114;SHT31;59989;46.220;19.888;2023-08-08T12:15:29;27.90;36.17
72114;SHT31;59989;46.220;19.888;2023-08-08T12:18:34;29.28;34.47
72114;SHT31;59989;46.220;19.888;2023-08-08T12:21:37;27.92;35.65
72114;SHT31;59989;46.220;19.888;2023-08-08T12:24:39;27.32;37.68
72114;SHT31;59989;46.220;19.888;2023-08-08T12:27:42;26.24;40.51
72114;SHT31;59989;46.220;19.888;2023-08-08T12:30:45;27.07;37.69
72114;SHT31;59989;46.220;19.888;2023-08-08T12:33:47;26.49;37.77
72114;SHT31;59989;46.220;19.888;2023-08-08T12:36:51;25.87;40.76
72114;SHT31;59989;46.220;19.888;2023-08-08T12:39:53;25.45;40.04
72114;SHT31;59989;46.220;19.888;2023-08-08T12:42:56;24.80;41.44
72114;SHT31;59989;46.220;19.888;2023-08-08T12:45:59;24.62;41.45
72114;SHT31;59989;46.220;19.888;2023-08-08T12:49:01;24.84;43.12
72114;SHT31;59989;46.220;19.888;2023-08-08T12:52:04;24.69;41.69
72114;SHT31;59989;46.220;19.888;2023-08-08T12:55:07;25.86;40.24
72114;SHT31;59989;46.220;19.888;2023-08-08T12:58:10;26.31;39.78
72114;SHT31;59989;46.220;19.888;2023-08-08T13:01:13;27.29;37.02
72114;SHT31;59989;46.220;19.888;2023-08-08T13:04:15;29.32;35.39
72114;SHT31;59989;46.220;19.888;2023-08-08T13:07:21;28.66;37.23
72114;SHT31;59989;46.220;19.888;2023-08-08T13:10:23;30.90;32.96
72114;SHT31;59989;46.220;19.888;2023-08-08T13:13:27;30.67;33.81
72114;SHT31;59989;46.220;19.888;2023-08-08T13:16:29;32.93;30.66
72114;SHT31;59989;46.220;19.888;2023-08-08T13:19:32;32.42;31.88
72114;SHT31;59989;46.220;19.888;2023-08-08T13:22:34;33.41;30.21
72114;SHT31;59989;46.220;19.888;2023-08-08T13:25:37;32.80;29.62
72114;SHT31;59989;46.220;19.888;2023-08-08T13:28:40;32.81;30.52
72114;SHT31;59989;46.220;19.888;2023-08-08T13:31:42;32.59;30.08
72114;SHT31;59989;46.220;19.888;2023-08-08T13:34:45;29.87;33.47
72114;SHT31;59989;46.220;19.888;2023-08-08T13:37:48;27.77;36.51
72114;SHT31;59989;46.220;19.888;2023-08-08T13:40:53;27.09;38.38
72114;SHT31;59989;46.220;19.888;2023-08-08T13:43:56;29.59;35.32
72114;SHT31;59989;46.220;19.888;2023-08-08T13:46:58;31.78;30.90
72114;SHT31;59989;46.220;19.888;2023-08-08T13:50:00;31.88;30.81
72114;SHT31;59989;46.220;19.888;2023-08-08T13:53:03;31.70;30.60
72114;SHT31;59989;46.220;19.888;2023-08-08T13:56:06;32.86;28.79
72114;SHT31;59989;46.220;19.888;2023-08-08T13:59:08;32.70;29.23
72114;SHT31;59989;46.220;19.888;2023-08-08T14:02:11;32.79;29.26
72114;SHT31;59989;46.220;19.888;2023-08-08T14:05:14;33.47;27.97
72114;SHT31;59989;46.220;19.888;2023-08-08T14:08:18;29.19;32.81
72114;SHT31;59989;46.220;19.888;2023-08-08T14:11:20;26.99;36.47
72114;SHT31;59989;46.220;19.888;2023-08-08T14:14:23;29.70;33.92
72114;SHT31;59989;46.220;19.888;2023-08-08T14:17:25;31.80;31.33
72114;SHT31;59989;46.220;19.888;2023-08-08T14:20:28;32.24;29.39
72114;SHT31;59989;46.220;19.888;2023-08-08T14:23:31;33.34;28.60
72114;SHT31;59989;46.220;19.888;2023-08-08T14:26:33;33.97;28.54
72114;SHT31;59989;46.220;19.888;2023-08-08T14:29:36;31.30;31.35
72114;SHT31;59989;46.220;19.888;2023-08-08T14:32:38;28.69;33.28
72114;SHT31;59989;46.220;19.888;2023-08-08T14:35:42;29.99;32.16
72114;SHT31;59989;46.220;19.888;2023-08-08T14:38:44;31.96;28.96
72114;SHT31;59989;46.220;19.888;2023-08-08T14:41:47;35.09;25.93
72114;SHT31;59989;46.220;19.888;2023-08-08T14:44:50;38.97;23.08
72114;SHT31;59989;46.220;19.888;2023-08-08T14:47:53;34.98;25.57
72114;SHT31;59989;46.220;19.888;2023-08-08T14:50:56;37.92;22.46
72114;SHT31;59989;46.220;19.888;2023-08-08T14:53:58;37.51;23.68
72114;SHT31;59989;46.220;19.888;2023-08-08T14:57:01;35.59;24.44
72114;SHT31;59989;46.220;19.888;2023-08-08T15:00:05;34.60;25.57
72114;SHT31;59989;46.220;19.888;2023-08-08T15:03:09;32.84;28.67
72114;SHT31;59989;46.220;19.888;2023-08-08T15:06:12;34.80;27.04
72114;SHT31;59989;46.220;19.888;2023-08-08T15:09:15;36.36;25.78
72114;SHT31;59989;46.220;19.888;2023-08-08T15:12:17;36.11;24.20
72114;SHT31;59989;46.220;19.888;2023-08-08T15:15:20;36.01;24.67
72114;SHT31;59989;46.220;19.888;2023-08-08T15:18:25;37.12;24.96
72114;SHT31;59989;46.220;19.888;2023-08-08T15:21:28;37.37;23.60
72114;SHT31;59989;46.220;19.888;2023-08-08T15:24:30;36.52;24.53
72114;SHT31;59989;46.220;19.888;2023-08-08T15:27:33;36.80;24.64
72114;SHT31;59989;46.220;19.888;2023-08-08T15:30:37;34.55;26.16
72114;SHT31;59989;46.220;19.888;2023-08-08T15:33:39;34.19;26.67
72114;SHT31;59989;46.220;19.888;2023-08-08T15:36:42;33.17;27.10
72114;SHT31;59989;46.220;19.888;2023-08-08T15:39:45;33.78;26.84
72114;SHT31;59989;46.220;19.888;2023-08-08T15:42:47;34.88;25.94
72114;SHT31;59989;46.220;19.888;2023-08-08T15:45:51;36.20;25.15
72114;SHT31;59989;46.220;19.888;2023-08-08T15:48:54;34.77;25.69
72114;SHT31;59989;46.220;19.888;2023-08-08T15:51:57;37.14;22.90
72114;SHT31;59989;46.220;19.888;2023-08-08T15:54:59;35.29;25.51
72114;SHT31;59989;46.220;19.888;2023-08-08T15:58:03;32.59;28.68
72114;SHT31;59989;46.220;19.888;2023-08-08T16:01:05;29.97;31.64
72114;SHT31;59989;46.220;19.888;2023-08-08T16:04:09;27.74;34.36
72114;SHT31;59989;46.220;19.888;2023-08-08T16:07:12;26.69;36.42
72114;SHT31;59989;46.220;19.888;2023-08-08T16:10:20;26.57;38.08
72114;SHT31;59989;46.220;19.888;2023-08-08T16:13:23;25.92;38.30
72114;SHT31;59989;46.220;19.888;2023-08-08T16:16:25;25.52;38.96
72114;SHT31;59989;46.220;19.888;2023-08-08T16:19:28;25.28;38.28
72114;SHT31;59989;46.220;19.888;2023-08-08T16:22:30;25.00;40.00
72114;SHT31;59989;46.220;19.888;2023-08-08T16:25:33;24.53;41.42
72114;SHT31;59989;46.220;19.888;2023-08-08T16:28:35;24.28;41.53
72114;SHT31;59989;46.220;19.888;2023-08-08T16:31:38;24.12;41.20
72114;SHT31;59989;46.220;19.888;2023-08-08T16:34:41;23.94;42.94
72114;SHT31;59989;46.220;19.888;2023-08-08T16:37:44;23.91;45.86
72114;SHT31;59989;46.220;19.888;2023-08-08T16:40:46;23.84;43.06
72114;SHT31;59989;46.220;19.888;2023-08-08T16:44:04;23.88;44.49
72114;SHT31;59989;46.220;19.888;2023-08-08T16:47:07;23.74;45.58
72114;SHT31;59989;46.220;19.888;2023-08-08T16:50:10;23.40;43.05
72114;SHT31;59989;46.220;19.888;2023-08-08T16:53:12;23.24;43.07
72114;SHT31;59989;46.220;19.888;2023-08-08T16:56:16;23.22;44.14
72114;SHT31;59989;46.220;19.888;2023-08-08T16:59:19;23.12;43.53
72114;SHT31;59989;46.220;19.888;2023-08-08T17:02:21;23.03;44.90
72114;SHT31;59989;46.220;19.888;2023-08-08T17:05:24;22.92;44.90
72114;SHT31;59989;46.220;19.888;2023-08-08T17:08:26;22.88;45.93
72114;SHT31;59989;46.220;19.888;2023-08-08T17:11:29;22.81;48.13
72114;SHT31;59989;46.220;19.888;2023-08-08T17:14:31;22.78;48.60
72114;SHT31;59989;46.220;19.888;2023-08-08T17:17:34;22.64;46.99
72114;SHT31;59989;46.220;19.888;2023-08-08T17:20:37;22.45;49.35
72114;SHT31;59989;46.220;19.888;2023-08-08T17:23:40;22.24;50.38
72114;SHT31;59989;46.220;19.888;2023-08-08T17:26:42;22.04;50.37
72114;SHT31;59989;46.220;19.888;2023-08-08T17:29:46;21.85;50.59
72114;SHT31;59989;46.220;19.888;2023-08-08T17:32:48;21.63;51.94
72114;SHT31;59989;46.220;19.888;2023-08-08T17:35:51;21.51;52.20
72114;SHT31;59989;46.220;19.888;2023-08-08T17:38:54;21.32;52.02
72114;SHT31;59989;46.220;19.888;2023-08-08T17:41:56;21.15;51.95
72114;SHT31;59989;46.220;19.888;2023-08-08T17:44:59;20.98;53.25
72114;SHT31;59989;46.220;19.888;2023-08-08T17:48:01;20.83;54.61
72114;SHT31;59989;46.220;19.888;2023-08-08T17:51:04;20.66;55.39
72114;SHT31;59989;46.220;19.888;2023-08-08T17:54:07;20.50;54.73
72114;SHT31;59989;46.220;19.888;2023-08-08T17:57:09;20.35;55.05
72114;SHT31;59989;46.220;19.888;2023-08-08T18:00:12;20.24;57.14
72114;SHT31;59989;46.220;19.888;2023-08-08T18:03:15;20.11;56.26
72114;SHT31;59989;46.220;19.888;2023-08-08T18:06:17;19.97;57.64
72114;SHT31;59989;46.220;19.888;2023-08-08T18:09:20;19.84;58.72
72114;SHT31;59989;46.220;19.888;2023-08-08T18:12:24;19.75;60.66
72114;SHT31;59989;46.220;19.888;2023-08-08T18:15:26;19.57;61.52
72114;SHT31;59989;46.220;19.888;2023-08-08T18:18:29;19.43;61.58
72114;SHT31;59989;46.220;19.888;2023-08-08T18:21:32;19.32;61.90
72114;SHT31;59989;46.220;19.888;2023-08-08T18:24:34;19.22;62.91
72114;SHT31;59989;46.220;19.888;2023-08-08T18:27:36;19.11;62.08
72114;SHT31;59989;46.220;19.888;2023-08-08T18:30:39;19.03;62.55
72114;SHT31;59989;46.220;19.888;2023-08-08T18:33:42;18.92;62.76
72114;SHT31;59989;46.220;19.888;2023-08-08T18:36:45;18.88;62.10
72114;SHT31;59989;46.220;19.888;2023-08-08T18:39:47;18.79;62.18
72114;SHT31;59989;46.220;19.888;2023-08-08T18:42:50;18.75;63.18
72114;SHT31;59989;46.220;19.888;2023-08-08T18:45:53;18.68;64.15
72114;SHT31;59989;46.220;19.888;2023-08-08T18:48:56;18.64;64.13
72114;SHT31;59989;46.220;19.888;2023-08-08T18:51:58;18.61;64.12
72114;SHT31;59989;46.220;19.888;2023-08-08T18:55:02;18.57;64.02
72114;SHT31;59989;46.220;19.888;2023-08-08T18:58:04;18.48;64.44